Time;durP1;ratioP1;P1;durP2;ratioP2;P2;SDS_P1;SDS_P2;PMS_P1;PMS_P2;Temp;Humidity;BMP_temperature;BMP_pressure;BME280_temperature;BME280_humidity;BME280_pressure;Samples;Min_cycle;Max_cycle;Signal;HPM_P1;HPM_P2
2022/11/06 00:00:18;;;;;;;2.93;1.70;;;7.80;76.00;;;;;;5016005;28;20191;-62
2022/11/06 00:02:44;;;;;;;2.47;1.67;;;7.80;75.70;;;;;;5031064;28;20203;-62
2022/11/06 00:07:55;;;;;;;1.70;1.33;;;7.80;75.50;;;;;;5016438;28;20428;-62
2022/11/06 00:10:21;;;;;;;1.90;1.80;;;7.80;75.50;;;;;;5034743;28;20969;-62
2022/11/06 00:12:47;;;;;;;1.50;1.40;;;7.80;74.60;;;;;;5038704;28;20187;-62
2022/11/06 00:15:13;;;;;;;1.83;1.60;;;7.70;74.90;;;;;;5055186;28;20433;-62
2022/11/06 00:17:39;;;;;;;1.93;1.40;;;7.80;75.10;;;;;;5015179;28;20187;-62
2022/11/06 00:20:06;;;;;;;1.60;1.50;;;7.70;75.40;;;;;;5056335;28;20194;-62
2022/11/06 00:22:33;;;;;;;1.70;1.60;;;7.70;75.00;;;;;;5016636;28;20465;-62
2022/11/06 00:24:59;;;;;;;1.50;1.40;;;7.70;75.40;;;;;;5032331;28;20497;-62
2022/11/06 00:27:24;;;;;;;2.50;1.50;;;7.70;75.30;;;;;;5009084;28;20450;-62
2022/11/06 00:29:50;;;;;;;2.17;1.70;;;7.70;75.50;;;;;;5032739;28;20184;-62
2022/11/06 00:32:15;;;;;;;2.00;1.70;;;7.60;75.10;;;;;;5032229;28;20218;-62
2022/11/06 00:34:41;;;;;;;1.60;1.50;;;7.50;75.40;;;;;;5030980;28;20238;-62
2022/11/06 00:37:07;;;;;;;2.03;1.80;;;7.50;75.50;;;;;;5034578;28;20202;-62
2022/11/06 00:39:32;;;;;;;2.93;1.40;;;7.50;75.60;;;;;;5027688;28;20302;-62
2022/11/06 00:41:58;;;;;;;1.63;1.53;;;7.50;75.70;;;;;;5031276;28;20241;-62
2022/11/06 00:44:24;;;;;;;2.17;1.97;;;7.30;76.10;;;;;;5015753;28;20274;-62
2022/11/06 00:46:49;;;;;;;2.43;2.00;;;7.30;76.90;;;;;;5024575;28;20317;-62
2022/11/06 00:49:15;;;;;;;2.33;1.77;;;7.30;76.70;;;;;;5016160;28;20223;-62
2022/11/06 00:51:41;;;;;;;2.83;1.80;;;7.40;77.00;;;;;;5017236;28;20219;-62
2022/11/06 00:54:10;;;;;;;1.87;1.73;;;7.30;76.80;;;;;;5015167;28;20191;-62
2022/11/06 00:56:36;;;;;;;4.27;1.83;;;7.30;76.90;;;;;;5015184;28;20482;-62
2022/11/06 00:59:04;;;;;;;2.17;1.47;;;7.30;76.60;;;;;;5016164;28;20501;-62
2022/11/06 01:01:38;;;;;;;2.17;1.90;;;7.30;76.60;;;;;;5017527;28;20281;-62
2022/11/06 01:04:07;;;;;;;2.60;1.73;;;7.20;76.80;;;;;;5031545;28;20434;-62
2022/11/06 01:06:38;;;;;;;3.03;2.20;;;7.20;76.90;;;;;;5011485;28;20430;-62
2022/11/06 01:09:05;;;;;;;4.00;2.00;;;7.30;76.30;;;;;;5041225;28;20437;-62
2022/11/06 01:11:33;;;;;;;3.00;2.10;;;7.10;76.50;;;;;;5047510;28;20465;-62
2022/11/06 01:14:01;;;;;;;2.80;1.80;;;7.10;77.10;;;;;;5038606;28;20447;-62
2022/11/06 01:16:27;;;;;;;7.37;1.83;;;7.10;76.70;;;;;;5020470;28;20427;-62
2022/11/06 01:18:54;;;;;;;2.03;1.60;;;7.20;76.90;;;;;;5039061;28;20434;-62
2022/11/06 01:21:21;;;;;;;2.30;2.10;;;7.20;76.40;;;;;;5018179;28;20498;-62
2022/11/06 01:23:52;;;;;;;2.73;2.10;;;7.30;76.80;;;;;;5022273;28;20516;-62
2022/11/06 01:26:18;;;;;;;3.30;1.87;;;7.20;76.80;;;;;;5013450;28;20466;-62
2022/11/06 01:28:43;;;;;;;2.47;1.67;;;7.30;77.00;;;;;;5030894;28;20458;-62
2022/11/06 01:31:12;;;;;;;1.80;1.40;;;7.30;76.40;;;;;;5024599;28;20276;-62
2022/11/06 01:33:38;;;;;;;2.10;1.43;;;7.30;76.30;;;;;;5013040;28;20188;-62
2022/11/06 01:36:04;;;;;;;2.67;1.90;;;7.30;75.30;;;;;;5047814;28;20517;-62
2022/11/06 01:38:30;;;;;;;1.30;1.20;;;7.30;76.10;;;;;;5013895;28;20183;-62
2022/11/06 01:40:56;;;;;;;2.00;1.50;;;7.20;75.50;;;;;;5038379;28;20464;-62
2022/11/06 01:43:45;;;;;;;2.33;1.50;;;7.20;75.80;;;;;;5051449;28;20187;-62
2022/11/06 01:46:11;;;;;;;1.40;1.30;;;7.30;75.80;;;;;;5018446;28;20199;-62
2022/11/06 01:48:38;;;;;;;2.33;1.50;;;7.30;75.70;;;;;;5030675;28;20419;-62
2022/11/06 01:51:05;;;;;;;1.30;1.20;;;7.30;75.60;;;;;;5011603;28;20269;-62
2022/11/06 01:53:31;;;;;;;1.63;1.40;;;7.30;75.40;;;;;;5005663;28;20514;-62
2022/11/06 01:56:00;;;;;;;1.50;1.40;;;7.30;75.60;;;;;;5024043;28;20586;-62
2022/11/06 01:58:29;;;;;;;1.53;1.00;;;7.30;74.70;;;;;;5020140;28;20183;-63
2022/11/06 02:00:55;;;;;;;2.20;1.40;;;7.30;74.80;;;;;;5013464;28;20430;-62
2022/11/06 02:03:20;;;;;;;1.40;1.17;;;7.40;75.50;;;;;;5030223;28;20438;-62
2022/11/06 02:05:46;;;;;;;3.27;1.20;;;7.40;75.10;;;;;;5029351;28;20261;-62
2022/11/06 02:08:18;;;;;;;1.20;1.10;;;7.50;75.10;;;;;;5012910;28;20191;-62
2022/11/06 02:10:44;;;;;;;1.13;1.03;;;7.60;74.30;;;;;;5017270;28;20452;-62
2022/11/06 02:13:18;;;;;;;1.50;1.20;;;7.60;74.20;;;;;;5030031;28;20434;-62
2022/11/06 02:16:08;;;;;;;0.80;0.80;;;7.70;73.80;;;;;;5033575;28;20187;-62
2022/11/06 02:18:49;;;;;;;1.20;1.10;;;7.70;73.30;;;;;;5047120;28;20430;-62
2022/11/06 02:21:47;;;;;;;1.10;1.00;;;7.80;73.30;;;;;;4997173;28;20522;-62
2022/11/06 02:24:43;;;;;;;1.43;1.00;;;7.80;72.80;;;;;;5042821;28;20438;-63
2022/11/06 02:27:11;;;;;;;1.40;1.30;;;7.80;73.50;;;;;;5007858;28;20434;-62
2022/11/06 02:29:48;;;;;;;1.63;0.97;;;7.80;73.50;;;;;;5038873;28;20446;-62
2022/11/06 02:32:30;;;;;;;1.77;0.97;;;7.80;73.20;;;;;;5013455;28;20458;-62
2022/11/06 02:35:00;;;;;;;1.77;0.90;;;7.70;73.40;;;;;;5020420;28;20421;-62
2022/11/06 02:37:31;;;;;;;0.97;0.97;;;7.70;73.60;;;;;;5012687;28;20439;-62
2022/11/06 02:40:01;;;;;;;1.03;0.90;;;7.70;74.10;;;;;;5053346;28;20426;-62
2022/11/06 02:42:28;;;;;;;1.17;1.07;;;7.70;74.00;;;;;;5013634;28;20432;-62
2022/11/06 02:44:57;;;;;;;1.10;1.00;;;7.70;73.70;;;;;;5011350;28;20433;-62
2022/11/06 02:47:25;;;;;;;3.17;1.00;;;7.70;74.00;;;;;;5045415;28;20431;-62
2022/11/06 02:50:00;;;;;;;0.90;0.87;;;7.70;74.40;;;;;;5045227;28;20445;-62
2022/11/06 02:52:41;;;;;;;2.13;1.10;;;7.70;74.00;;;;;;5047258;28;20484;-62
2022/11/06 02:55:16;;;;;;;1.97;1.17;;;7.70;74.40;;;;;;5006941;28;20430;-62
2022/11/06 02:57:47;;;;;;;1.53;1.10;;;7.70;73.60;;;;;;5046250;28;20511;-62
2022/11/06 03:00:14;;;;;;;1.03;0.90;;;7.70;73.70;;;;;;5046114;28;20517;-62
2022/11/06 03:02:52;;;;;;;2.47;1.10;;;7.60;74.10;;;;;;5012497;28;20453;-62
2022/11/06 03:05:32;;;;;;;4.47;1.23;;;7.70;73.90;;;;;;5010325;28;20428;-62
2022/11/06 03:08:05;;;;;;;2.80;1.00;;;7.70;73.20;;;;;;5027400;28;20468;-62
2022/11/06 03:10:40;;;;;;;1.20;1.10;;;7.70;74.10;;;;;;5009856;28;20470;-62
2022/11/06 03:13:43;;;;;;;1.23;1.13;;;7.70;74.10;;;;;;5013199;28;20425;-62
2022/11/06 03:16:37;;;;;;;1.10;1.07;;;7.70;73.60;;;;;;5009203;28;20427;-62
2022/11/06 03:19:23;;;;;;;1.03;0.93;;;7.70;73.40;;;;;;5012099;28;20434;-62
2022/11/06 03:21:51;;;;;;;0.97;0.90;;;7.70;72.70;;;;;;4998887;28;20434;-62
2022/11/06 03:24:29;;;;;;;1.20;1.10;;;7.70;73.20;;;;;;5013870;28;20423;-62
2022/11/06 03:26:58;;;;;;;1.17;1.03;;;7.70;72.70;;;;;;5045747;28;20494;-62
2022/11/06 03:29:58;;;;;;;2.53;1.17;;;7.70;73.80;;;;;;5046104;28;20933;-62
2022/11/06 03:32:36;;;;;;;1.10;0.90;;;7.70;73.10;;;;;;5008716;28;20485;-62
2022/11/06 03:35:23;;;;;;;2.23;1.30;;;7.80;73.10;;;;;;5016286;28;20477;-62
2022/11/06 03:38:12;;;;;;;1.03;1.00;;;7.70;73.00;;;;;;5046538;28;20505;-62
2022/11/06 03:40:48;;;;;;;1.30;1.20;;;7.70;72.90;;;;;;5012511;28;20418;-62
2022/11/06 03:43:16;;;;;;;1.30;1.20;;;7.70;73.10;;;;;;5045683;28;20506;-62
2022/11/06 03:45:43;;;;;;;1.40;1.10;;;7.70;71.80;;;;;;5010095;28;20427;-62
2022/11/06 03:48:37;;;;;;;2.73;1.30;;;7.70;70.90;;;;;;4994517;28;20457;-62
2022/11/06 03:51:24;;;;;;;1.77;1.50;;;7.70;71.30;;;;;;5049774;28;20466;-62
2022/11/06 03:53:54;;;;;;;2.67;1.13;;;7.70;72.10;;;;;;5016550;28;20933;-62
2022/11/06 03:56:33;;;;;;;1.20;1.10;;;7.70;70.40;;;;;;5049206;28;20480;-62
2022/11/06 03:59:05;;;;;;;3.13;1.20;;;7.80;71.40;;;;;;5009568;28;20426;-62
2022/11/06 04:01:34;;;;;;;2.00;1.03;;;7.80;69.50;;;;;;5054021;28;20587;-62
2022/11/06 04:04:31;;;;;;;1.60;1.50;;;7.80;70.10;;;;;;5015475;28;20430;-62
2022/11/06 04:07:21;;;;;;;1.27;1.10;;;7.80;70.80;;;;;;5015838;28;20489;-62
2022/11/06 04:13:56;;;;;;;1.13;1.00;;;7.80;70.20;;;;;;4998743;28;20446;-62
2022/11/06 04:15:33;;;;;;;0.90;0.90;;;7.90;70.80;;;;;;5016205;28;20411;-62
2022/11/06 04:17:59;;;;;;;1.63;1.13;;;7.90;70.80;;;;;;5050982;28;20482;-63
2022/11/06 04:23:32;;;;;;;1.13;1.03;;;7.90;71.00;;;;;;5016272;28;20194;-63
2022/11/06 04:29:01;;;;;;;1.50;1.20;;;7.80;71.10;;;;;;5016197;28;20418;-62
2022/11/06 04:31:52;;;;;;;3.40;1.07;;;7.80;70.80;;;;;;5009408;28;20840;-62
2022/11/06 04:34:30;;;;;;;3.70;1.13;;;7.70;71.40;;;;;;5034941;28;20447;-62
2022/11/06 04:37:13;;;;;;;1.30;1.00;;;7.70;71.40;;;;;;5006809;28;20463;-62
2022/11/06 04:40:00;;;;;;;2.20;1.40;;;7.70;71.80;;;;;;5013248;28;20422;-62
2022/11/06 04:42:40;;;;;;;1.30;1.20;;;7.70;71.70;;;;;;5039994;28;20542;-62
2022/11/06 04:45:16;;;;;;;3.20;1.50;;;7.60;71.00;;;;;;5003697;28;20466;-62
2022/11/06 04:47:42;;;;;;;1.60;1.20;;;7.60;71.60;;;;;;5013267;28;20437;-62
2022/11/06 04:50:12;;;;;;;1.30;1.20;;;7.60;71.60;;;;;;5016899;28;20458;-62
2022/11/06 04:52:39;;;;;;;1.93;1.30;;;7.70;71.10;;;;;;5033470;28;20433;-62
2022/11/06 04:55:05;;;;;;;2.37;1.37;;;7.70;71.60;;;;;;5002790;28;20470;-62
2022/11/06 04:57:31;;;;;;;2.83;1.43;;;7.70;71.50;;;;;;5035098;28;20495;-62
2022/11/06 04:59:57;;;;;;;3.73;1.20;;;7.60;71.90;;;;;;5032693;28;20200;-62
2022/11/06 05:02:23;;;;;;;1.30;1.20;;;7.60;72.20;;;;;;5047778;28;20204;-62
2022/11/06 05:04:49;;;;;;;2.07;1.87;;;7.60;72.50;;;;;;5002107;28;20241;-62
2022/11/06 05:07:15;;;;;;;1.30;1.20;;;7.60;72.30;;;;;;4994982;28;20483;-62
2022/11/06 05:09:41;;;;;;;1.57;1.27;;;7.50;72.70;;;;;;5044186;28;20183;-63
2022/11/06 05:12:07;;;;;;;1.40;1.30;;;7.50;72.60;;;;;;5031761;28;20466;-63
2022/11/06 05:14:32;;;;;;;1.60;1.00;;;7.50;72.80;;;;;;5030783;28;20914;-62
2022/11/06 05:16:59;;;;;;;2.53;1.27;;;7.50;72.90;;;;;;5012677;28;20197;-62
2022/11/06 05:19:24;;;;;;;1.40;1.30;;;7.40;72.70;;;;;;5051123;28;20277;-62
2022/11/06 05:24:34;;;;;;;2.53;1.70;;;7.40;73.10;;;;;;5013980;28;20246;-62
2022/11/06 05:27:00;;;;;;;2.07;1.30;;;7.50;72.90;;;;;;5047050;28;20427;-62
2022/11/06 05:29:26;;;;;;;2.57;1.10;;;7.40;72.70;;;;;;5043244;28;20287;-62
2022/11/06 05:31:52;;;;;;;1.37;1.27;;;7.40;72.80;;;;;;5005237;28;20212;-62
2022/11/06 05:34:17;;;;;;;4.20;1.50;;;7.40;73.40;;;;;;5040322;28;20426;-62
2022/11/06 05:36:43;;;;;;;2.57;1.27;;;7.30;72.70;;;;;;5032050;28;20238;-62
2022/11/06 05:39:09;;;;;;;1.47;1.37;;;7.30;72.60;;;;;;5030007;28;20184;-63
2022/11/06 05:41:35;;;;;;;1.50;1.30;;;7.20;72.50;;;;;;5020439;28;20287;-63
2022/11/06 05:44:01;;;;;;;2.40;1.40;;;7.10;72.80;;;;;;5028996;28;20187;-63
2022/11/06 05:46:26;;;;;;;1.63;1.37;;;7.10;72.90;;;;;;5018220;28;20576;-63
2022/11/06 05:48:52;;;;;;;1.50;1.20;;;7.10;73.10;;;;;;5020934;28;20192;-63
2022/11/06 05:51:19;;;;;;;2.33;1.40;;;7.10;73.10;;;;;;5032922;28;20214;-63
2022/11/06 05:53:44;;;;;;;2.33;1.70;;;7.20;73.60;;;;;;5043414;28;20191;-63
2022/11/06 05:56:10;;;;;;;2.20;1.63;;;7.20;73.30;;;;;;5010299;28;20493;-63
2022/11/06 05:58:36;;;;;;;3.33;1.30;;;7.20;73.50;;;;;;5050955;28;20199;-63
2022/11/06 06:01:03;;;;;;;1.63;1.53;;;7.30;73.60;;;;;;4995668;28;20284;-63
2022/11/06 06:03:28;;;;;;;2.27;1.60;;;7.10;73.00;;;;;;5039812;28;20423;-63
2022/11/06 06:05:54;;;;;;;2.30;1.70;;;7.00;74.10;;;;;;5029949;28;20438;-63
2022/11/06 06:08:20;;;;;;;2.07;1.60;;;7.10;74.20;;;;;;4995518;28;20240;-64
2022/11/06 06:10:46;;;;;;;1.40;1.30;;;7.10;74.00;;;;;;5025236;28;20216;-63
2022/11/06 06:13:13;;;;;;;2.57;1.50;;;7.10;74.40;;;;;;5037054;28;20203;-63
2022/11/06 06:15:40;;;;;;;1.70;1.60;;;7.10;73.90;;;;;;5016454;28;20425;-63
2022/11/06 06:18:07;;;;;;;2.10;1.90;;;7.00;74.40;;;;;;5030817;28;20587;-63
2022/11/06 06:20:33;;;;;;;5.63;1.90;;;6.90;74.50;;;;;;4997109;28;20538;-63
2022/11/06 06:22:59;;;;;;;1.67;1.43;;;7.00;74.30;;;;;;4989116;28;20441;-63
2022/11/06 06:25:26;;;;;;;2.83;1.83;;;7.00;74.60;;;;;;5003123;28;20434;-63
2022/11/06 06:27:52;;;;;;;3.30;1.70;;;7.00;74.60;;;;;;5015037;28;20191;-63
2022/11/06 06:30:18;;;;;;;2.00;1.80;;;6.90;75.00;;;;;;5037277;28;20440;-64
2022/11/06 06:32:44;;;;;;;2.13;1.37;;;6.90;74.70;;;;;;5047110;28;20275;-63
2022/11/06 06:35:10;;;;;;;2.20;2.00;;;6.90;75.20;;;;;;5014670;28;20517;-63
2022/11/06 06:37:35;;;;;;;2.77;2.17;;;6.80;75.10;;;;;;4995385;28;20196;-63
2022/11/06 06:40:01;;;;;;;2.87;1.70;;;6.80;75.10;;;;;;5002755;28;20187;-63
2022/11/06 06:42:28;;;;;;;2.17;1.97;;;6.80;75.00;;;;;;5029079;28;20196;-63
2022/11/06 06:44:53;;;;;;;2.20;2.00;;;6.80;75.00;;;;;;5029217;28;20974;-63
2022/11/06 06:47:19;;;;;;;2.77;1.80;;;6.70;75.20;;;;;;4999246;28;20444;-63
2022/11/06 06:49:45;;;;;;;2.50;2.30;;;6.60;75.60;;;;;;4992278;28;20188;-63
2022/11/06 06:52:11;;;;;;;3.73;2.33;;;6.70;75.60;;;;;;4995434;28;20212;-63
2022/11/06 06:54:37;;;;;;;3.73;2.23;;;6.60;75.80;;;;;;5022897;28;20449;-63
2022/11/06 06:57:06;;;;;;;2.60;2.40;;;6.70;76.00;;;;;;5013537;28;20993;-63
2022/11/06 06:59:32;;;;;;;4.10;2.47;;;6.70;75.80;;;;;;5010339;28;20206;-64
2022/11/06 07:01:57;;;;;;;2.87;2.57;;;6.70;75.60;;;;;;5006608;28;20437;-63
2022/11/06 07:04:23;;;;;;;4.93;3.03;;;6.60;76.10;;;;;;5031285;28;20194;-63
2022/11/06 07:06:51;;;;;;;3.60;2.60;;;6.60;75.90;;;;;;5045125;28;20184;-63
2022/11/06 07:09:17;;;;;;;3.60;2.50;;;6.50;76.70;;;;;;5031271;28;20227;-63
2022/11/06 07:11:42;;;;;;;7.83;3.20;;;6.50;76.90;;;;;;5011668;28;20505;-63
2022/11/06 07:14:09;;;;;;;3.20;2.83;;;6.50;76.70;;;;;;5013166;28;20184;-63
2022/11/06 07:16:35;;;;;;;2.67;2.47;;;6.60;76.80;;;;;;5027174;28;20274;-62
2022/11/06 07:19:01;;;;;;;3.20;2.80;;;6.50;76.00;;;;;;5016176;28;20525;-60
2022/11/06 07:21:26;;;;;;;5.37;4.00;;;6.30;77.10;;;;;;5013255;28;20208;-60
2022/11/06 07:23:52;;;;;;;6.83;3.80;;;6.40;76.90;;;;;;5033012;28;20219;-59
2022/11/06 07:26:18;;;;;;;4.47;3.87;;;6.40;77.10;;;;;;5033678;28;20199;-60
2022/11/06 07:28:43;;;;;;;7.70;3.80;;;6.50;76.90;;;;;;5017149;28;20196;-60
2022/11/06 07:31:11;;;;;;;4.77;3.57;;;6.60;77.20;;;;;;5016349;28;20357;-60
2022/11/06 07:33:37;;;;;;;4.53;3.60;;;6.60;77.30;;;;;;5016190;28;20215;-59
2022/11/06 07:36:12;;;;;;;3.97;3.07;;;6.70;77.00;;;;;;5018922;28;20434;-60
2022/11/06 07:38:39;;;;;;;3.70;3.37;;;6.70;77.00;;;;;;5006952;28;20522;-60
2022/11/06 07:41:08;;;;;;;4.83;3.03;;;6.70;76.70;;;;;;5049852;28;20431;-59
2022/11/06 07:43:34;;;;;;;3.33;2.67;;;6.80;76.70;;;;;;5053004;28;20528;-60
2022/11/06 07:46:02;;;;;;;5.43;3.20;;;6.80;76.60;;;;;;5005116;28;20477;-59
2022/11/06 07:48:29;;;;;;;4.60;2.80;;;6.80;76.70;;;;;;5025164;28;20433;-60
2022/11/06 07:50:54;;;;;;;3.97;2.90;;;6.80;76.30;;;;;;5040078;28;20477;-61
2022/11/06 07:53:20;;;;;;;3.30;2.73;;;6.90;76.50;;;;;;5026003;28;20447;-62
2022/11/06 07:55:51;;;;;;;4.17;3.20;;;6.90;76.50;;;;;;5022116;28;20195;-62
2022/11/06 07:58:18;;;;;;;3.60;2.83;;;7.00;76.40;;;;;;5011838;28;20195;-60
2022/11/06 08:00:48;;;;;;;4.10;3.13;;;7.00;76.40;;;;;;5019901;28;20577;-59
2022/11/06 08:03:14;;;;;;;4.77;3.33;;;7.10;76.30;;;;;;4999046;28;20458;-59
2022/11/06 08:05:39;;;;;;;4.50;2.97;;;7.10;76.40;;;;;;5001396;28;20447;-60
2022/11/06 08:08:05;;;;;;;3.80;2.87;;;7.00;76.50;;;;;;5013184;28;20223;-60
2022/11/06 08:10:31;;;;;;;4.13;2.93;;;7.10;76.70;;;;;;5032349;28;20204;-60
2022/11/06 08:12:59;;;;;;;4.20;3.30;;;7.20;76.80;;;;;;5005488;28;20246;-60
2022/11/06 08:15:25;;;;;;;4.33;3.33;;;7.10;77.00;;;;;;5015804;28;20185;-60
2022/11/06 08:17:50;;;;;;;4.03;3.00;;;7.20;77.00;;;;;;5053596;28;20481;-61
2022/11/06 08:20:16;;;;;;;4.70;3.33;;;7.30;75.90;;;;;;5045842;28;20245;-61
2022/11/06 08:22:42;;;;;;;3.33;3.03;;;7.30;76.30;;;;;;5021441;28;20211;-62
2022/11/06 08:25:08;;;;;;;3.30;2.93;;;7.40;76.10;;;;;;5005149;28;20188;-61
2022/11/06 08:27:34;;;;;;;3.43;2.50;;;7.40;75.80;;;;;;4996879;28;20200;-61
2022/11/06 08:29:59;;;;;;;3.63;3.07;;;7.50;76.10;;;;;;4991993;28;20435;-60
2022/11/06 08:32:26;;;;;;;4.17;3.20;;;7.60;75.70;;;;;;5018816;28;20559;-60
2022/11/06 08:34:52;;;;;;;3.03;2.67;;;7.60;75.80;;;;;;4997771;28;20196;-61
2022/11/06 08:37:17;;;;;;;4.17;2.97;;;7.60;75.90;;;;;;5006685;28;20437;-61
2022/11/06 08:39:43;;;;;;;3.77;3.13;;;7.70;75.30;;;;;;5025748;28;20196;-61
2022/11/06 08:42:09;;;;;;;3.00;2.70;;;7.80;75.60;;;;;;5030705;28;20207;-61
2022/11/06 08:44:34;;;;;;;3.00;2.70;;;7.80;75.80;;;;;;5015421;28;20694;-60
2022/11/06 08:47:00;;;;;;;3.83;2.70;;;7.80;74.00;;;;;;5018224;28;20227;-61
2022/11/06 08:49:26;;;;;;;5.40;3.10;;;7.90;74.30;;;;;;5030844;28;20199;-61
2022/11/06 08:51:52;;;;;;;2.70;2.30;;;8.00;74.50;;;;;;4989474;28;20263;-60
2022/11/06 08:54:18;;;;;;;3.33;2.37;;;8.00;74.90;;;;;;5032070;28;20206;-61
2022/11/06 08:56:44;;;;;;;3.17;2.60;;;8.10;75.00;;;;;;5014388;28;20490;-61
2022/11/06 08:59:09;;;;;;;2.90;2.33;;;8.10;75.30;;;;;;5015831;28;20329;-61
2022/11/06 09:01:35;;;;;;;3.83;2.80;;;8.20;73.00;;;;;;5011879;28;20213;-59
2022/11/06 09:04:00;;;;;;;4.83;2.67;;;8.30;73.70;;;;;;4980477;28;20259;-59
2022/11/06 09:06:26;;;;;;;3.03;2.47;;;8.30;74.00;;;;;;5011625;28;20188;-60
2022/11/06 09:08:52;;;;;;;2.53;2.30;;;8.40;74.40;;;;;;4992176;28;20303;-59
2022/11/06 09:11:17;;;;;;;2.73;2.30;;;8.40;74.30;;;;;;4999993;28;20255;-59
2022/11/06 09:13:43;;;;;;;2.53;2.03;;;8.40;74.00;;;;;;5023883;28;20198;-59
2022/11/06 09:16:09;;;;;;;3.47;2.17;;;8.50;74.10;;;;;;5028639;28;20234;-61
2022/11/06 09:18:34;;;;;;;3.03;2.20;;;8.60;72.60;;;;;;5034199;28;20226;-61
2022/11/06 09:21:00;;;;;;;2.60;2.00;;;8.70;71.90;;;;;;5029876;28;20208;-61
2022/11/06 09:23:26;;;;;;;1.87;1.77;;;8.80;70.90;;;;;;5015251;28;20206;-61
2022/11/06 09:25:51;;;;;;;2.53;2.00;;;8.90;70.70;;;;;;5012043;28;20199;-61
2022/11/06 09:28:17;;;;;;;2.63;1.97;;;9.10;69.20;;;;;;5028211;28;20206;-61
2022/11/06 09:30:43;;;;;;;3.07;2.10;;;9.20;68.00;;;;;;5020031;28;20231;-61
2022/11/06 09:33:08;;;;;;;3.43;2.00;;;9.30;66.70;;;;;;5028433;28;20592;-61
2022/11/06 09:35:35;;;;;;;2.97;2.37;;;9.50;67.40;;;;;;5001162;28;20222;-61
2022/11/06 09:38:01;;;;;;;3.10;2.27;;;9.60;67.50;;;;;;5022623;28;20263;-61
2022/11/06 09:40:34;;;;;;;2.73;2.30;;;9.60;67.90;;;;;;5055103;28;20483;-61
2022/11/06 09:43:18;;;;;;;3.07;2.43;;;9.60;67.40;;;;;;5037569;28;20523;-61
2022/11/06 09:45:46;;;;;;;3.40;2.20;;;9.80;66.90;;;;;;5010940;28;20434;-61
2022/11/06 09:48:27;;;;;;;2.37;1.83;;;9.80;67.70;;;;;;4997401;28;20241;-61
2022/11/06 09:51:17;;;;;;;2.97;2.10;;;9.80;66.30;;;;;;5008684;28;20500;-61
2022/11/06 09:53:54;;;;;;;2.73;2.47;;;9.90;67.50;;;;;;5045194;28;20439;-61
2022/11/06 09:56:24;;;;;;;2.23;2.03;;;10.00;67.00;;;;;;5010235;28;20293;-61
2022/11/06 09:58:52;;;;;;;2.83;1.97;;;10.10;66.20;;;;;;4996021;28;20562;-61
2022/11/06 10:01:34;;;;;;;1.87;1.50;;;10.30;64.70;;;;;;5031627;28;20305;-60
2022/11/06 10:04:03;;;;;;;1.97;1.60;;;10.20;66.70;;;;;;5013325;28;20187;-61
2022/11/06 10:06:29;;;;;;;2.20;2.00;;;10.30;65.90;;;;;;5013583;28;20196;-61
2022/11/06 10:09:04;;;;;;;2.90;1.90;;;10.30;65.80;;;;;;5011568;28;20527;-61
2022/11/06 10:11:51;;;;;;;2.20;2.00;;;10.40;66.20;;;;;;5018027;28;20270;-61
2022/11/06 10:14:30;;;;;;;2.40;1.87;;;10.50;65.30;;;;;;5004137;28;20184;-60
2022/11/06 10:17:08;;;;;;;4.57;1.90;;;10.40;64.90;;;;;;5019802;28;20258;-60
2022/11/06 10:19:39;;;;;;;3.30;2.27;;;10.50;64.20;;;;;;5019933;28;20442;-61
2022/11/06 10:22:04;;;;;;;1.83;1.43;;;10.60;63.00;;;;;;5046149;28;20430;-60
2022/11/06 10:24:46;;;;;;;1.83;1.53;;;10.70;64.00;;;;;;5020210;28;20196;-60
2022/11/06 10:27:27;;;;;;;1.63;1.53;;;10.70;64.80;;;;;;4988291;28;20210;-61
2022/11/06 10:30:05;;;;;;;2.10;1.80;;;10.70;64.90;;;;;;5011031;28;20191;-60
2022/11/06 10:32:40;;;;;;;2.33;1.93;;;10.70;64.70;;;;;;5019138;28;20343;-59
2022/11/06 10:35:24;;;;;;;4.10;1.83;;;10.80;64.80;;;;;;5012754;28;20188;-59
2022/11/06 10:37:53;;;;;;;2.37;1.90;;;11.00;63.50;;;;;;5003628;28;20248;-61
2022/11/06 10:40:23;;;;;;;4.47;2.37;;;11.00;64.50;;;;;;5041517;28;20271;-61
2022/11/06 10:43:15;;;;;;;2.67;2.20;;;11.20;60.60;;;;;;5020513;28;20195;-61
2022/11/06 10:45:46;;;;;;;3.23;2.43;;;11.30;62.00;;;;;;5016761;28;20203;-61
2022/11/06 10:48:31;;;;;;;2.53;2.33;;;11.30;62.40;;;;;;5011144;28;20192;-61
2022/11/06 10:51:21;;;;;;;2.40;2.07;;;11.30;63.80;;;;;;5015121;28;20270;-61
2022/11/06 10:54:17;;;;;;;3.60;2.10;;;11.20;63.70;;;;;;5024965;28;20179;-61
2022/11/06 10:56:54;;;;;;;4.00;2.30;;;11.40;63.80;;;;;;5006074;28;20301;-61
2022/11/06 10:59:20;;;;;;;2.90;2.17;;;11.50;60.10;;;;;;5017772;28;20199;-61
2022/11/06 11:01:46;;;;;;;4.60;2.53;;;11.50;61.00;;;;;;5017930;28;20206;-61
2022/11/06 11:04:12;;;;;;;2.77;1.90;;;11.80;63.00;;;;;;5010016;28;20192;-61
2022/11/06 11:06:39;;;;;;;2.87;2.07;;;11.80;62.00;;;;;;5001303;28;20227;-61
2022/11/06 11:09:29;;;;;;;2.87;2.13;;;11.70;62.90;;;;;;5033139;28;20311;-61
2022/11/06 11:11:55;;;;;;;2.23;1.87;;;11.80;61.60;;;;;;5007325;28;20217;-60
2022/11/06 11:14:24;;;;;;;2.30;2.00;;;11.90;62.90;;;;;;5009721;28;20188;-62
2022/11/06 11:16:50;;;;;;;3.97;2.50;;;12.10;61.50;;;;;;5018484;28;20190;-61
2022/11/06 11:19:40;;;;;;;2.33;2.13;;;12.30;61.40;;;;;;5029616;28;20187;-62
2022/11/06 11:22:15;;;;;;;2.07;1.67;;;12.30;59.50;;;;;;5050304;28;20191;-62
2022/11/06 11:25:02;;;;;;;1.77;1.67;;;12.40;61.20;;;;;;5053253;28;20226;-61
2022/11/06 11:27:31;;;;;;;2.73;1.70;;;12.40;60.30;;;;;;5052817;28;20202;-61
2022/11/06 11:29:57;;;;;;;2.47;1.60;;;12.40;60.60;;;;;;5017574;28;20275;-62
2022/11/06 11:32:23;;;;;;;1.70;1.60;;;12.30;61.00;;;;;;5033068;28;20246;-62
2022/11/06 11:34:54;;;;;;;3.77;2.00;;;12.50;59.60;;;;;;5032654;28;20188;-62
2022/11/06 11:37:32;;;;;;;2.40;2.20;;;12.70;60.90;;;;;;5054419;28;20245;-62
2022/11/06 11:40:30;;;;;;;4.30;2.03;;;12.80;60.20;;;;;;5048855;28;20222;-62
2022/11/06 11:43:34;;;;;;;1.70;1.40;;;13.00;59.00;;;;;;5006558;28;20210;-62
2022/11/06 11:46:02;;;;;;;1.97;1.70;;;13.10;55.40;;;;;;5058789;28;20190;-62
2022/11/06 11:48:49;;;;;;;2.30;1.70;;;13.40;55.50;;;;;;5022178;28;20342;-62
2022/11/06 11:51:25;;;;;;;2.60;1.77;;;13.50;54.80;;;;;;5016064;28;20313;-62
2022/11/06 11:53:53;;;;;;;1.73;1.60;;;13.80;53.00;;;;;;5048232;28;20246;-62
2022/11/06 11:56:21;;;;;;;1.63;1.40;;;13.70;54.70;;;;;;5049284;28;20257;-62
2022/11/06 11:58:54;;;;;;;2.33;1.60;;;13.70;53.40;;;;;;5011779;28;20204;-62
2022/11/06 12:01:39;;;;;;;2.80;2.10;;;13.70;53.60;;;;;;5043001;28;20223;-62
2022/11/06 12:04:30;;;;;;;1.83;1.60;;;13.80;52.40;;;;;;4999195;28;20208;-61
2022/11/06 12:07:02;;;;;;;1.50;1.40;;;14.00;51.30;;;;;;5016459;28;20204;-62
2022/11/06 12:09:33;;;;;;;1.53;1.20;;;14.00;51.20;;;;;;5007111;28;20231;-61
2022/11/06 12:12:01;;;;;;;2.47;1.50;;;14.00;51.40;;;;;;5022396;28;20211;-61
2022/11/06 12:14:36;;;;;;;2.67;1.80;;;14.20;53.70;;;;;;5009166;28;20239;-61
2022/11/06 12:17:10;;;;;;;2.07;1.73;;;14.20;51.40;;;;;;5017246;28;20278;-62
2022/11/06 12:19:40;;;;;;;2.77;1.63;;;14.30;52.50;;;;;;5014862;28;20286;-62
2022/11/06 12:22:30;;;;;;;1.73;1.30;;;14.30;53.30;;;;;;5016848;28;20222;-62
2022/11/06 12:25:10;;;;;;;2.00;1.70;;;14.20;52.70;;;;;;5044494;28;20219;-62
2022/11/06 12:27:43;;;;;;;1.97;1.77;;;14.30;52.60;;;;;;5017202;28;20235;-62
2022/11/06 12:30:19;;;;;;;2.53;1.53;;;14.30;51.60;;;;;;5015438;28;20195;-62
2022/11/06 12:32:57;;;;;;;2.00;1.73;;;14.30;53.10;;;;;;4997757;28;20223;-62
2022/11/06 12:35:40;;;;;;;1.50;1.40;;;14.40;55.00;;;;;;5048519;28;20274;-62
2022/11/06 12:38:25;;;;;;;1.73;1.60;;;14.50;54.30;;;;;;5004927;28;20187;-61
2022/11/06 12:41:00;;;;;;;1.83;1.30;;;14.60;53.50;;;;;;5048286;28;20259;-61
2022/11/06 12:43:44;;;;;;;1.17;1.07;;;14.80;51.20;;;;;;5049403;28;20213;-61
2022/11/06 12:46:34;;;;;;;1.43;1.30;;;14.80;52.10;;;;;;5001738;28;20220;-61
2022/11/06 12:49:07;;;;;;;1.27;1.17;;;14.80;52.50;;;;;;5058462;28;20195;-60
2022/11/06 12:51:53;;;;;;;2.27;1.50;;;14.90;53.10;;;;;;5006637;28;20224;-61
2022/11/06 12:54:19;;;;;;;2.13;1.60;;;14.90;53.10;;;;;;5007726;28;20192;-62
2022/11/06 12:57:15;;;;;;;1.60;1.50;;;14.90;50.20;;;;;;5048314;28;20239;-63
2022/11/06 12:59:47;;;;;;;2.80;1.67;;;14.90;52.10;;;;;;5009196;28;20246;-63
2022/11/06 13:02:15;;;;;;;2.17;1.43;;;15.00;50.80;;;;;;5023950;28;20228;-62
2022/11/06 13:05:15;;;;;;;1.93;1.50;;;15.10;50.60;;;;;;5018882;28;20253;-62
2022/11/06 13:08:22;;;;;;;2.80;1.40;;;15.10;52.30;;;;;;5017224;28;20202;-62
2022/11/06 13:11:18;;;;;;;1.47;1.37;;;15.20;53.20;;;;;;5003156;28;20254;-62
2022/11/06 13:13:59;;;;;;;3.33;1.67;;;15.20;53.00;;;;;;5017571;28;20185;-61
2022/11/06 13:16:43;;;;;;;2.23;1.40;;;15.10;52.70;;;;;;5023966;28;20561;-62
2022/11/06 13:19:44;;;;;;;2.17;1.60;;;15.20;52.80;;;;;;5046515;28;20192;-61
2022/11/06 13:22:34;;;;;;;1.40;1.20;;;15.20;52.70;;;;;;5014434;28;20201;-61
2022/11/06 13:25:17;;;;;;;1.50;1.40;;;15.20;49.80;;;;;;5020234;28;20196;-62
2022/11/06 13:27:42;;;;;;;2.30;1.70;;;15.10;49.60;;;;;;5046572;28;20216;-62
2022/11/06 13:30:15;;;;;;;2.83;1.50;;;15.00;48.40;;;;;;5014997;28;20230;-61
2022/11/06 13:32:45;;;;;;;1.70;1.40;;;15.20;51.70;;;;;;5012749;28;20216;-61